sensor_id;sensor_type;location;lat;lon;timestamp;pressure;altitude;pressure_sealevel;temperature;humidity
22206;BME280;11272;50.104;8.754;2024-03-06T00:02:05;100735.03;;;10.11;80.12
22206;BME280;11272;50.104;8.754;2024-03-06T00:04:31;100740.38;;;10.09;80.23
22206;BME280;11272;50.104;8.754;2024-03-06T00:06:58;100749.16;;;10.11;80.27
22206;BME280;11272;50.104;8.754;2024-03-06T00:09:25;100752.69;;;10.12;80.54
22206;BME280;11272;50.104;8.754;2024-03-06T00:11:52;100750.91;;;10.14;80.09
22206;BME280;11272;50.104;8.754;2024-03-06T00:14:19;100751.78;;;10.16;80.28
22206;BME280;11272;50.104;8.754;2024-03-06T00:16:45;100746.50;;;10.14;80.62
22206;BME280;11272;50.104;8.754;2024-03-06T00:19:11;100749.22;;;10.08;80.28
22206;BME280;11272;50.104;8.754;2024-03-06T00:21:36;100754.56;;;10.05;80.73
22206;BME280;11272;50.104;8.754;2024-03-06T00:24:05;100750.19;;;10.01;80.56
22206;BME280;11272;50.104;8.754;2024-03-06T00:26:30;100744.97;;;9.97;79.72
22206;BME280;11272;50.104;8.754;2024-03-06T00:28:56;100747.69;;;9.92;79.61
22206;BME280;11272;50.104;8.754;2024-03-06T00:31:22;100752.19;;;9.84;79.54
22206;BME280;11272;50.104;8.754;2024-03-06T00:33:48;100754.09;;;9.76;79.66
22206;BME280;11272;50.104;8.754;2024-03-06T00:36:13;100767.44;;;9.67;79.96
22206;BME280;11272;50.104;8.754;2024-03-06T00:38:39;100768.44;;;9.60;79.58
22206;BME280;11272;50.104;8.754;2024-03-06T00:41:04;100772.03;;;9.53;79.57
22206;BME280;11272;50.104;8.754;2024-03-06T00:43:30;100775.66;;;9.46;79.38
22206;BME280;11272;50.104;8.754;2024-03-06T00:45:55;100781.06;;;9.40;79.63
22206;BME280;11272;50.104;8.754;2024-03-06T00:48:21;100784.59;;;9.36;79.44
22206;BME280;11272;50.104;8.754;2024-03-06T00:50:46;100784.66;;;9.33;79.55
22206;BME280;11272;50.104;8.754;2024-03-06T00:53:12;100788.19;;;9.33;79.98
22206;BME280;11272;50.104;8.754;2024-03-06T00:55:37;100782.00;;;9.33;80.33
22206;BME280;11272;50.104;8.754;2024-03-06T00:58:03;100789.03;;;9.35;79.92
22206;BME280;11272;50.104;8.754;2024-03-06T01:00:29;100789.03;;;9.35;80.21
22206;BME280;11272;50.104;8.754;2024-03-06T01:02:58;100798.72;;;9.38;80.15
22206;BME280;11272;50.104;8.754;2024-03-06T01:05:24;100801.38;;;9.38;80.18
22206;BME280;11272;50.104;8.754;2024-03-06T01:07:49;100798.72;;;9.36;80.39
22206;BME280;11272;50.104;8.754;2024-03-06T01:10:15;100801.44;;;9.35;80.39
22206;BME280;11272;50.104;8.754;2024-03-06T01:12:40;100795.25;;;9.34;80.27
22206;BME280;11272;50.104;8.754;2024-03-06T01:15:06;100802.31;;;9.34;80.41
22206;BME280;11272;50.104;8.754;2024-03-06T01:17:33;100797.91;;;9.31;80.58
22206;BME280;11272;50.104;8.754;2024-03-06T01:19:59;100790.00;;;9.26;80.40
22206;BME280;11272;50.104;8.754;2024-03-06T01:22:25;100800.66;;;9.23;80.48
22206;BME280;11272;50.104;8.754;2024-03-06T01:24:50;100798.91;;;9.21;79.81
22206;BME280;11272;50.104;8.754;2024-03-06T01:27:16;100801.59;;;9.15;80.00
22206;BME280;11272;50.104;8.754;2024-03-06T01:29:42;100795.47;;;9.08;80.13
22206;BME280;11272;50.104;8.754;2024-03-06T01:32:08;100798.16;;;9.07;80.43
22206;BME280;11272;50.104;8.754;2024-03-06T01:34:35;100802.59;;;9.03;79.92
22206;BME280;11272;50.104;8.754;2024-03-06T01:37:01;100789.41;;;9.00;80.42
22206;BME280;11272;50.104;8.754;2024-03-06T01:39:26;100794.75;;;8.94;80.06
22206;BME280;11272;50.104;8.754;2024-03-06T01:41:52;100799.19;;;8.91;79.90
22206;BME280;11272;50.104;8.754;2024-03-06T01:44:18;100799.22;;;8.87;79.93
22206;BME280;11272;50.104;8.754;2024-03-06T01:46:44;100797.47;;;8.85;79.66
22206;BME280;11272;50.104;8.754;2024-03-06T01:49:12;100795.75;;;8.81;79.83
22206;BME280;11272;50.104;8.754;2024-03-06T01:51:40;100801.94;;;8.78;79.67
22206;BME280;11272;50.104;8.754;2024-03-06T01:54:06;100801.94;;;8.77;79.75
22206;BME280;11272;50.104;8.754;2024-03-06T01:56:33;100799.34;;;8.71;79.45
22206;BME280;11272;50.104;8.754;2024-03-06T01:59:00;100800.25;;;8.67;79.57
22206;BME280;11272;50.104;8.754;2024-03-06T02:01:27;100802.94;;;8.64;79.51
22206;BME280;11272;50.104;8.754;2024-03-06T02:03:53;100801.22;;;8.57;79.12
22206;BME280;11272;50.104;8.754;2024-03-06T02:06:19;100805.69;;;8.52;80.09
22206;BME280;11272;50.104;8.754;2024-03-06T02:08:45;100803.94;;;8.44;79.72
22206;BME280;11272;50.104;8.754;2024-03-06T02:11:12;100808.41;;;8.39;79.33
22206;BME280;11272;50.104;8.754;2024-03-06T02:13:39;100801.38;;;8.35;79.22
22206;BME280;11272;50.104;8.754;2024-03-06T02:16:05;100811.09;;;8.32;79.04
22206;BME280;11272;50.104;8.754;2024-03-06T02:18:32;100819.03;;;8.27;79.36
22206;BME280;11272;50.104;8.754;2024-03-06T02:20:57;100819.03;;;8.23;79.48
22206;BME280;11272;50.104;8.754;2024-03-06T02:23:25;100818.19;;;8.18;79.43
22206;BME280;11272;50.104;8.754;2024-03-06T02:25:51;100820.00;;;8.13;79.57
22206;BME280;11272;50.104;8.754;2024-03-06T02:28:17;100820.00;;;8.08;79.56
22206;BME280;11272;50.104;8.754;2024-03-06T02:30:43;100815.63;;;8.04;79.63
22206;BME280;11272;50.104;8.754;2024-03-06T02:33:09;100818.31;;;7.99;79.72
22206;BME280;11272;50.104;8.754;2024-03-06T02:35:35;100820.09;;;7.94;79.73
22206;BME280;11272;50.104;8.754;2024-03-06T02:38:03;100820.09;;;7.91;79.70
22206;BME280;11272;50.104;8.754;2024-03-06T02:40:30;100816.59;;;7.88;79.55
22206;BME280;11272;50.104;8.754;2024-03-06T02:42:56;100818.38;;;7.84;79.94
22206;BME280;11272;50.104;8.754;2024-03-06T02:45:22;100816.63;;;7.79;79.71
22206;BME280;11272;50.104;8.754;2024-03-06T02:47:47;100812.22;;;7.75;79.97
22206;BME280;11272;50.104;8.754;2024-03-06T02:50:13;100814.91;;;7.72;79.95
22206;BME280;11272;50.104;8.754;2024-03-06T02:52:39;100806.09;;;7.68;80.23
22206;BME280;11272;50.104;8.754;2024-03-06T02:55:05;100806.09;;;7.67;80.11
22206;BME280;11272;50.104;8.754;2024-03-06T02:57:31;100815.81;;;7.68;80.41
22206;BME280;11272;50.104;8.754;2024-03-06T02:59:57;100812.28;;;7.66;80.14
22206;BME280;11272;50.104;8.754;2024-03-06T03:02:23;100822.84;;;7.64;80.05
22206;BME280;11272;50.104;8.754;2024-03-06T03:04:50;100827.28;;;7.62;79.96
22206;BME280;11272;50.104;8.754;2024-03-06T03:07:16;100828.16;;;7.61;80.12
22206;BME280;11272;50.104;8.754;2024-03-06T03:09:41;100818.47;;;7.58;80.07
22206;BME280;11272;50.104;8.754;2024-03-06T03:12:07;100816.72;;;7.57;80.48
22206;BME280;11272;50.104;8.754;2024-03-06T03:14:32;100819.34;;;7.56;80.51
22206;BME280;11272;50.104;8.754;2024-03-06T03:17:00;100819.34;;;7.54;80.65
22206;BME280;11272;50.104;8.754;2024-03-06T03:19:26;100821.13;;;7.52;80.33
22206;BME280;11272;50.104;8.754;2024-03-06T03:21:51;100820.25;;;7.49;80.69
22206;BME280;11272;50.104;8.754;2024-03-06T03:24:17;100829.94;;;7.48;80.57
22206;BME280;11272;50.104;8.754;2024-03-06T03:26:45;100832.59;;;7.47;80.36
22206;BME280;11272;50.104;8.754;2024-03-06T03:29:11;100831.72;;;7.46;80.67
22206;BME280;11272;50.104;8.754;2024-03-06T03:31:36;100842.28;;;7.46;80.50
22206;BME280;11272;50.104;8.754;2024-03-06T03:34:05;100836.13;;;7.44;80.43
22206;BME280;11272;50.104;8.754;2024-03-06T03:36:31;100842.28;;;7.45;80.48
22206;BME280;11272;50.104;8.754;2024-03-06T03:38:56;100837.88;;;7.44;80.23
22206;BME280;11272;50.104;8.754;2024-03-06T03:41:22;100848.44;;;7.45;80.10
22206;BME280;11272;50.104;8.754;2024-03-06T03:43:47;100853.75;;;7.47;80.24
22206;BME280;11272;50.104;8.754;2024-03-06T03:46:14;100847.56;;;7.46;80.22
22206;BME280;11272;50.104;8.754;2024-03-06T03:48:39;100855.50;;;7.46;80.50
22206;BME280;11272;50.104;8.754;2024-03-06T03:51:05;100847.56;;;7.46;79.88
22206;BME280;11272;50.104;8.754;2024-03-06T03:53:33;100850.22;;;7.45;80.35
22206;BME280;11272;50.104;8.754;2024-03-06T03:55:59;100842.28;;;7.43;80.29
22206;BME280;11272;50.104;8.754;2024-03-06T03:58:25;100850.22;;;7.42;80.37
22206;BME280;11272;50.104;8.754;2024-03-06T04:00:50;100847.56;;;7.40;80.35
22206;BME280;11272;50.104;8.754;2024-03-06T04:03:37;100852.84;;;7.39;80.52
22206;BME280;11272;50.104;8.754;2024-03-06T04:06:02;100854.63;;;7.41;80.43
22206;BME280;11272;50.104;8.754;2024-03-06T04:08:28;100859.91;;;7.40;80.72
22206;BME280;11272;50.104;8.754;2024-03-06T04:10:53;100858.13;;;7.39;80.30
22206;BME280;11272;50.104;8.754;2024-03-06T04:13:19;100858.13;;;7.37;80.56
22206;BME280;11272;50.104;8.754;2024-03-06T04:15:45;100858.16;;;7.34;80.75
22206;BME280;11272;50.104;8.754;2024-03-06T04:18:11;100854.63;;;7.32;80.51
22206;BME280;11272;50.104;8.754;2024-03-06T04:20:37;100865.19;;;7.32;80.70
22206;BME280;11272;50.104;8.754;2024-03-06T04:23:02;100871.34;;;7.34;80.62
22206;BME280;11272;50.104;8.754;2024-03-06T04:25:28;100870.47;;;7.34;80.80
22206;BME280;11272;50.104;8.754;2024-03-06T04:27:53;100869.59;;;7.35;80.43
22206;BME280;11272;50.104;8.754;2024-03-06T04:30:19;100867.84;;;7.34;81.08
22206;BME280;11272;50.104;8.754;2024-03-06T04:32:44;100882.81;;;7.36;81.34
22206;BME280;11272;50.104;8.754;2024-03-06T04:35:10;100878.41;;;7.40;81.02
22206;BME280;11272;50.104;8.754;2024-03-06T04:37:36;100877.53;;;7.42;80.87
22206;BME280;11272;50.104;8.754;2024-03-06T04:40:03;100888.94;;;7.44;81.29
22206;BME280;11272;50.104;8.754;2024-03-06T04:42:36;100888.06;;;7.44;80.78
22206;BME280;11272;50.104;8.754;2024-03-06T04:45:10;100885.44;;;7.45;80.97
22206;BME280;11272;50.104;8.754;2024-03-06T04:47:38;100881.91;;;7.43;80.89
22206;BME280;11272;50.104;8.754;2024-03-06T04:50:10;100892.47;;;7.43;80.75
22206;BME280;11272;50.104;8.754;2024-03-06T04:52:37;100884.56;;;7.46;80.96
22206;BME280;11272;50.104;8.754;2024-03-06T04:55:03;100891.59;;;7.47;80.59
22206;BME280;11272;50.104;8.754;2024-03-06T04:57:28;100896.00;;;7.45;80.93
22206;BME280;11272;50.104;8.754;2024-03-06T04:59:54;100898.63;;;7.44;80.80
22206;BME280;11272;50.104;8.754;2024-03-06T05:02:19;100900.41;;;7.46;81.02
22206;BME280;11272;50.104;8.754;2024-03-06T05:04:45;100903.94;;;7.45;80.80
22206;BME280;11272;50.104;8.754;2024-03-06T05:07:12;100905.69;;;7.46;81.19
22206;BME280;11272;50.104;8.754;2024-03-06T05:09:38;100918.91;;;7.45;81.06
22206;BME280;11272;50.104;8.754;2024-03-06T05:12:07;100914.50;;;7.47;81.24
22206;BME280;11272;50.104;8.754;2024-03-06T05:14:32;100923.31;;;7.47;81.64
22206;BME280;11272;50.104;8.754;2024-03-06T05:16:58;100925.06;;;7.48;81.64
22206;BME280;11272;50.104;8.754;2024-03-06T05:19:24;100932.97;;;7.48;81.83
22206;BME280;11272;50.104;8.754;2024-03-06T05:21:58;100934.78;;;7.42;82.00
22206;BME280;11272;50.104;8.754;2024-03-06T05:24:23;100938.28;;;7.45;82.14
22206;BME280;11272;50.104;8.754;2024-03-06T05:26:49;100933.88;;;7.44;82.01
22206;BME280;11272;50.104;8.754;2024-03-06T05:29:15;100933.88;;;7.44;82.14
22206;BME280;11272;50.104;8.754;2024-03-06T05:31:40;100932.09;;;7.43;81.90
22206;BME280;11272;50.104;8.754;2024-03-06T05:34:06;100933.88;;;7.44;82.24
22206;BME280;11272;50.104;8.754;2024-03-06T05:36:31;100941.81;;;7.47;82.12
22206;BME280;11272;50.104;8.754;2024-03-06T05:38:57;100937.38;;;7.48;81.86
22206;BME280;11272;50.104;8.754;2024-03-06T05:41:22;100942.69;;;7.46;81.92
22206;BME280;11272;50.104;8.754;2024-03-06T05:43:48;100940.03;;;7.51;81.89
22206;BME280;11272;50.104;8.754;2024-03-06T05:46:13;100940.03;;;7.51;82.01
22206;BME280;11272;50.104;8.754;2024-03-06T05:48:41;100939.16;;;7.52;81.37
22206;BME280;11272;50.104;8.754;2024-03-06T05:51:06;100945.31;;;7.49;81.32
22206;BME280;11272;50.104;8.754;2024-03-06T05:53:39;100950.63;;;7.46;81.43
22206;BME280;11272;50.104;8.754;2024-03-06T05:56:08;100957.66;;;7.46;81.72
22206;BME280;11272;50.104;8.754;2024-03-06T05:58:33;100962.06;;;7.47;81.20
22206;BME280;11272;50.104;8.754;2024-03-06T06:01:00;100971.75;;;7.46;81.56
22206;BME280;11272;50.104;8.754;2024-03-06T06:03:30;100969.97;;;7.44;81.88
22206;BME280;11272;50.104;8.754;2024-03-06T06:05:56;100980.56;;;7.42;81.71
22206;BME280;11272;50.104;8.754;2024-03-06T06:08:22;100982.31;;;7.43;81.76
22206;BME280;11272;50.104;8.754;2024-03-06T06:10:48;100980.53;;;7.39;82.10
22206;BME280;11272;50.104;8.754;2024-03-06T06:13:13;100978.78;;;7.40;82.58
22206;BME280;11272;50.104;8.754;2024-03-06T06:15:40;100990.25;;;7.40;82.81
22206;BME280;11272;50.104;8.754;2024-03-06T06:18:06;100983.19;;;7.41;82.41
22206;BME280;11272;50.104;8.754;2024-03-06T06:20:31;100992.00;;;7.44;82.39
22206;BME280;11272;50.104;8.754;2024-03-06T06:22:57;100992.00;;;7.47;82.53
22206;BME280;11272;50.104;8.754;2024-03-06T06:25:23;100997.28;;;7.49;82.79
22206;BME280;11272;50.104;8.754;2024-03-06T06:27:48;100992.00;;;7.50;82.59
22206;BME280;11272;50.104;8.754;2024-03-06T06:30:17;100995.50;;;7.54;82.94
22206;BME280;11272;50.104;8.754;2024-03-06T06:32:43;100989.38;;;7.58;82.78
22206;BME280;11272;50.104;8.754;2024-03-06T06:35:09;100996.41;;;7.64;83.02
22206;BME280;11272;50.104;8.754;2024-03-06T06:37:37;100995.53;;;7.66;83.03
22206;BME280;11272;50.104;8.754;2024-03-06T06:40:03;101003.47;;;7.74;83.38
22206;BME280;11272;50.104;8.754;2024-03-06T06:42:32;100994.63;;;7.79;83.24
22206;BME280;11272;50.104;8.754;2024-03-06T06:44:59;100993.75;;;7.85;83.40
22206;BME280;11272;50.104;8.754;2024-03-06T06:47:25;100987.56;;;7.90;83.22
22206;BME280;11272;50.104;8.754;2024-03-06T06:49:50;101000.78;;;7.99;83.23
22206;BME280;11272;50.104;8.754;2024-03-06T06:52:17;100998.13;;;8.06;83.58
22206;BME280;11272;50.104;8.754;2024-03-06T06:54:42;101007.81;;;8.10;83.68
22206;BME280;11272;50.104;8.754;2024-03-06T06:57:08;101018.38;;;8.17;83.77
22206;BME280;11272;50.104;8.754;2024-03-06T06:59:34;101014.81;;;8.23;83.82
22206;BME280;11272;50.104;8.754;2024-03-06T07:02:00;101019.25;;;8.31;84.12
22206;BME280;11272;50.104;8.754;2024-03-06T07:04:26;101028.03;;;8.42;84.24
22206;BME280;11272;50.104;8.754;2024-03-06T07:06:51;101028.91;;;8.48;83.97
22206;BME280;11272;50.104;8.754;2024-03-06T07:09:17;101034.19;;;8.54;84.02
22206;BME280;11272;50.104;8.754;2024-03-06T07:11:44;101042.06;;;8.67;83.53
22206;BME280;11272;50.104;8.754;2024-03-06T07:14:12;101042.91;;;8.77;84.07
22206;BME280;11272;50.104;8.754;2024-03-06T07:16:44;101051.66;;;8.93;84.50
22206;BME280;11272;50.104;8.754;2024-03-06T07:19:10;101055.09;;;9.11;84.33
22206;BME280;11272;50.104;8.754;2024-03-06T07:21:36;101061.19;;;9.27;84.35
22206;BME280;11272;50.104;8.754;2024-03-06T07:24:03;101054.03;;;9.43;84.95
22206;BME280;11272;50.104;8.754;2024-03-06T07:26:33;101063.63;;;9.60;84.68
22206;BME280;11272;50.104;8.754;2024-03-06T07:28:58;101057.25;;;9.83;84.90
22206;BME280;11272;50.104;8.754;2024-03-06T07:31:24;101064.06;;;10.11;85.20
22206;BME280;11272;50.104;8.754;2024-03-06T07:33:50;101061.16;;;10.40;85.27
22206;BME280;11272;50.104;8.754;2024-03-06T07:36:16;101069.78;;;10.62;84.93
22206;BME280;11272;50.104;8.754;2024-03-06T07:38:42;101065.13;;;10.80;84.18
22206;BME280;11272;50.104;8.754;2024-03-06T07:41:08;101073.78;;;10.96;83.64
22206;BME280;11272;50.104;8.754;2024-03-06T07:43:33;101069.19;;;11.09;82.76
22206;BME280;11272;50.104;8.754;2024-03-06T07:45:59;101079.84;;;11.07;81.64
22206;BME280;11272;50.104;8.754;2024-03-06T07:48:24;101079.97;;;10.98;80.89
22206;BME280;11272;50.104;8.754;2024-03-06T07:50:50;101087.19;;;10.85;80.23
22206;BME280;11272;50.104;8.754;2024-03-06T07:53:15;101091.75;;;10.76;79.55
22206;BME280;11272;50.104;8.754;2024-03-06T07:55:41;101089.25;;;10.59;78.88
22206;BME280;11272;50.104;8.754;2024-03-06T07:58:07;101092.16;;;10.38;78.78
22206;BME280;11272;50.104;8.754;2024-03-06T08:00:36;101094.91;;;10.29;78.93
22206;BME280;11272;50.104;8.754;2024-03-06T08:03:01;101097.63;;;10.23;79.12
22206;BME280;11272;50.104;8.754;2024-03-06T08:05:28;101107.34;;;10.24;78.93
22206;BME280;11272;50.104;8.754;2024-03-06T08:07:53;101102.91;;;10.23;79.32
22206;BME280;11272;50.104;8.754;2024-03-06T08:10:19;101105.53;;;10.26;79.33
22206;BME280;11272;50.104;8.754;2024-03-06T08:12:45;101109.06;;;10.31;79.26
22206;BME280;11272;50.104;8.754;2024-03-06T08:15:14;101109.88;;;10.36;79.08
22206;BME280;11272;50.104;8.754;2024-03-06T08:17:41;101110.69;;;10.44;80.03
22206;BME280;11272;50.104;8.754;2024-03-06T08:20:11;101112.34;;;10.54;79.19
22206;BME280;11272;50.104;8.754;2024-03-06T08:22:40;101109.56;;;10.65;79.38
22206;BME280;11272;50.104;8.754;2024-03-06T08:25:11;101109.50;;;10.71;78.70
22206;BME280;11272;50.104;8.754;2024-03-06T08:27:39;101113.81;;;10.79;78.73
22206;BME280;11272;50.104;8.754;2024-03-06T08:30:06;101112.97;;;10.77;78.64
22206;BME280;11272;50.104;8.754;2024-03-06T08:32:32;101124.38;;;10.85;78.34
22206;BME280;11272;50.104;8.754;2024-03-06T08:35:02;101116.34;;;10.91;77.94
22206;BME280;11272;50.104;8.754;2024-03-06T08:37:28;101111.84;;;10.96;78.33
22206;BME280;11272;50.104;8.754;2024-03-06T08:39:54;101123.38;;;10.98;77.90
22206;BME280;11272;50.104;8.754;2024-03-06T08:42:19;101120.66;;;11.02;77.52
22206;BME280;11272;50.104;8.754;2024-03-06T08:44:45;101115.34;;;11.02;77.62
22206;BME280;11272;50.104;8.754;2024-03-06T08:47:12;101119.78;;;11.01;77.26
22206;BME280;11272;50.104;8.754;2024-03-06T08:49:37;101122.34;;;11.09;77.22
22206;BME280;11272;50.104;8.754;2024-03-06T08:52:03;101125.81;;;11.15;77.01
22206;BME280;11272;50.104;8.754;2024-03-06T08:54:28;101122.16;;;11.22;77.07
22206;BME280;11272;50.104;8.754;2024-03-06T08:56:56;101131.81;;;11.31;77.15
22206;BME280;11272;50.104;8.754;2024-03-06T08:59:24;101126.41;;;11.37;76.91
22206;BME280;11272;50.104;8.754;2024-03-06T09:01:53;101129.84;;;11.44;76.47
22206;BME280;11272;50.104;8.754;2024-03-06T09:04:19;101134.19;;;11.52;76.75
22206;BME280;11272;50.104;8.754;2024-03-06T09:06:45;101137.66;;;11.57;75.97
22206;BME280;11272;50.104;8.754;2024-03-06T09:09:10;101136.69;;;11.61;75.91
22206;BME280;11272;50.104;8.754;2024-03-06T09:11:39;101128.63;;;11.67;75.49
22206;BME280;11272;50.104;8.754;2024-03-06T09:16:54;101133.72;;;11.86;75.18
22206;BME280;11272;50.104;8.754;2024-03-06T09:25:24;101134.47;;;11.95;74.77
22206;BME280;11272;50.104;8.754;2024-03-06T09:27:49;101142.38;;;12.00;74.55
22206;BME280;11272;50.104;8.754;2024-03-06T09:30:15;101144.06;;;12.05;74.34
22206;BME280;11272;50.104;8.754;2024-03-06T09:32:41;101143.09;;;12.08;74.07
22206;BME280;11272;50.104;8.754;2024-03-06T09:35:07;101146.63;;;12.10;73.82
22206;BME280;11272;50.104;8.754;2024-03-06T09:37:34;101143.06;;;12.11;73.02
22206;BME280;11272;50.104;8.754;2024-03-06T09:39:59;101148.31;;;12.17;73.02
22206;BME280;11272;50.104;8.754;2024-03-06T09:42:25;101153.50;;;12.24;72.88
22206;BME280;11272;50.104;8.754;2024-03-06T09:44:51;101141.75;;;12.35;72.98
22206;BME280;11272;50.104;8.754;2024-03-06T09:47:22;101138.88;;;12.48;72.49
22206;BME280;11272;50.104;8.754;2024-03-06T09:49:52;101137.72;;;12.61;72.62
22206;BME280;11272;50.104;8.754;2024-03-06T09:52:22;101137.47;;;12.77;72.46
22206;BME280;11272;50.104;8.754;2024-03-06T09:54:50;101131.84;;;12.92;72.37
22206;BME280;11272;50.104;8.754;2024-03-06T09:57:17;101135.97;;;13.08;72.03
22206;BME280;11272;50.104;8.754;2024-03-06T09:59:42;101136.50;;;13.25;71.71
22206;BME280;11272;50.104;8.754;2024-03-06T10:02:24;101134.38;;;13.41;71.40
22206;BME280;11272;50.104;8.754;2024-03-06T10:04:55;101141.06;;;13.62;71.15
22206;BME280;11272;50.104;8.754;2024-03-06T10:07:23;101130.78;;;13.83;70.52
22206;BME280;11272;50.104;8.754;2024-03-06T10:09:56;101128.50;;;14.04;69.97
22206;BME280;11272;50.104;8.754;2024-03-06T10:12:22;101135.88;;;14.28;69.10
22206;BME280;11272;50.104;8.754;2024-03-06T10:14:52;101126.41;;;14.52;68.36
22206;BME280;11272;50.104;8.754;2024-03-06T10:17:21;101130.41;;;14.68;67.69
22206;BME280;11272;50.104;8.754;2024-03-06T10:19:52;101133.56;;;14.84;66.87
22206;BME280;11272;50.104;8.754;2024-03-06T10:22:21;101127.94;;;14.93;66.53
22206;BME280;11272;50.104;8.754;2024-03-06T10:24:54;101134.56;;;15.10;65.87
22206;BME280;11272;50.104;8.754;2024-03-06T10:27:39;101131.28;;;15.32;65.76
22206;BME280;11272;50.104;8.754;2024-03-06T10:30:09;101131.53;;;15.53;65.15
22206;BME280;11272;50.104;8.754;2024-03-06T10:32:43;101134.63;;;15.69;64.32
22206;BME280;11272;50.104;8.754;2024-03-06T10:35:18;101130.47;;;15.87;63.79
22206;BME280;11272;50.104;8.754;2024-03-06T10:37:45;101139.31;;;16.69;64.27
22206;BME280;11272;50.104;8.754;2024-03-06T10:40:14;101133.66;;;17.50;62.59
22206;BME280;11272;50.104;8.754;2024-03-06T10:42:40;101143.38;;;18.21;61.40
22206;BME280;11272;50.104;8.754;2024-03-06T10:45:08;101132.22;;;18.92;59.83
22206;BME280;11272;50.104;8.754;2024-03-06T10:50:25;101128.53;;;20.44;56.36
22206;BME280;11272;50.104;8.754;2024-03-06T10:52:53;101119.13;;;21.03;54.43
22206;BME280;11272;50.104;8.754;2024-03-06T10:55:21;101133.81;;;21.48;52.25
22206;BME280;11272;50.104;8.754;2024-03-06T11:00:47;101127.34;;;21.99;50.00
22206;BME280;11272;50.104;8.754;2024-03-06T11:03:15;101130.47;;;22.07;47.78
22206;BME280;11272;50.104;8.754;2024-03-06T11:05:43;101125.75;;;22.26;47.05
22206;BME280;11272;50.104;8.754;2024-03-06T11:08:12;101129.88;;;22.47;46.30
22206;BME280;11272;50.104;8.754;2024-03-06T11:10:39;101124.75;;;22.73;45.32
22206;BME280;11272;50.104;8.754;2024-03-06T11:15:46;101130.25;;;23.43;43.21
22206;BME280;11272;50.104;8.754;2024-03-06T11:23:28;101124.44;;;24.19;41.03
22206;BME280;11272;50.104;8.754;2024-03-06T11:26:02;101129.53;;;23.97;40.73
22206;BME280;11272;50.104;8.754;2024-03-06T11:28:37;101124.75;;;23.59;40.25
22206;BME280;11272;50.104;8.754;2024-03-06T11:31:05;101127.63;;;22.99;40.46
22206;BME280;11272;50.104;8.754;2024-03-06T11:33:38;101127.81;;;22.37;40.63
22206;BME280;11272;50.104;8.754;2024-03-06T11:36:22;101132.72;;;21.83;41.24
22206;BME280;11272;50.104;8.754;2024-03-06T11:38:59;101132.25;;;21.59;41.65
22206;BME280;11272;50.104;8.754;2024-03-06T11:41:27;101130.44;;;21.75;41.71
22206;BME280;11272;50.104;8.754;2024-03-06T11:43:54;101134.28;;;21.71;41.40
22206;BME280;11272;50.104;8.754;2024-03-06T11:49:19;101133.53;;;21.21;41.56
22206;BME280;11272;50.104;8.754;2024-03-06T11:51:52;101127.13;;;21.22;41.61
22206;BME280;11272;50.104;8.754;2024-03-06T11:54:19;101123.28;;;21.59;41.95
22206;BME280;11272;50.104;8.754;2024-03-06T11:56:49;101128.53;;;21.93;40.61
22206;BME280;11272;50.104;8.754;2024-03-06T11:59:30;101121.56;;;21.73;40.65
22206;BME280;11272;50.104;8.754;2024-03-06T12:02:00;101129.47;;;21.45;40.24
22206;BME280;11272;50.104;8.754;2024-03-06T12:04:30;101122.44;;;21.08;40.80
22206;BME280;11272;50.104;8.754;2024-03-06T12:07:02;101126.31;;;20.70;41.34
22206;BME280;11272;50.104;8.754;2024-03-06T12:09:32;101122.81;;;20.33;41.71
22206;BME280;11272;50.104;8.754;2024-03-06T12:11:58;101132.41;;;20.03;41.76
22206;BME280;11272;50.104;8.754;2024-03-06T12:14:24;101134.25;;;19.65;42.29
22206;BME280;11272;50.104;8.754;2024-03-06T12:16:59;101124.59;;;19.41;42.77
22206;BME280;11272;50.104;8.754;2024-03-06T12:19:26;101124.47;;;19.23;43.28
22206;BME280;11272;50.104;8.754;2024-03-06T12:21:53;101139.69;;;19.06;43.34
22206;BME280;11272;50.104;8.754;2024-03-06T12:24:21;101136.94;;;18.87;43.42
22206;BME280;11272;50.104;8.754;2024-03-06T12:26:47;101134.44;;;18.62;43.46
22206;BME280;11272;50.104;8.754;2024-03-06T12:29:23;101146.41;;;18.33;44.28
22206;BME280;11272;50.104;8.754;2024-03-06T12:31:48;101145.81;;;18.05;44.46
22206;BME280;11272;50.104;8.754;2024-03-06T12:34:14;101147.16;;;17.72;44.68
22206;BME280;11272;50.104;8.754;2024-03-06T12:36:43;101151.75;;;17.45;45.19
22206;BME280;11272;50.104;8.754;2024-03-06T12:39:08;101157.19;;;17.20;45.42
22206;BME280;11272;50.104;8.754;2024-03-06T12:41:41;101147.31;;;16.96;45.90
22206;BME280;11272;50.104;8.754;2024-03-06T12:44:07;101154.34;;;16.75;46.19
22206;BME280;11272;50.104;8.754;2024-03-06T12:46:33;101160.28;;;16.57;46.71
22206;BME280;11272;50.104;8.754;2024-03-06T12:48:59;101153.31;;;16.51;46.91
22206;BME280;11272;50.104;8.754;2024-03-06T12:51:24;101150.88;;;16.45;47.39
22206;BME280;11272;50.104;8.754;2024-03-06T12:53:50;101154.53;;;16.42;47.38
22206;BME280;11272;50.104;8.754;2024-03-06T12:56:17;101151.97;;;16.39;47.50
22206;BME280;11272;50.104;8.754;2024-03-06T12:58:42;101157.34;;;16.39;47.72
22206;BME280;11272;50.104;8.754;2024-03-06T13:01:08;101152.09;;;16.35;47.88
22206;BME280;11272;50.104;8.754;2024-03-06T13:03:34;101148.50;;;16.36;48.03
22206;BME280;11272;50.104;8.754;2024-03-06T13:05:59;101150.97;;;16.42;47.84
22206;BME280;11272;50.104;8.754;2024-03-06T13:08:25;101142.88;;;16.43;48.37
22206;BME280;11272;50.104;8.754;2024-03-06T13:10:50;101141.88;;;16.46;48.13
22206;BME280;11272;50.104;8.754;2024-03-06T13:13:16;101149.00;;;16.47;47.93
22206;BME280;11272;50.104;8.754;2024-03-06T13:15:41;101143.75;;;16.44;48.04
22206;BME280;11272;50.104;8.754;2024-03-06T13:18:09;101142.09;;;16.40;47.96
22206;BME280;11272;50.104;8.754;2024-03-06T13:20:34;101135.59;;;16.47;47.99